sensor_id;sensor_type;location;lat;lon;timestamp;P1;durP1;ratioP1;P2;durP2;ratioP2
52104;SDS011;38103;42.776;23.112;2022-11-21T00:01:31;29.20;;;14.90;;
52104;SDS011;38103;42.776;23.112;2022-11-21T00:03:57;31.65;;;17.10;;
52104;SDS011;38103;42.776;23.112;2022-11-21T00:06:22;36.08;;;18.13;;
52104;SDS011;38103;42.776;23.112;2022-11-21T00:08:48;41.65;;;19.13;;
52104;SDS011;38103;42.776;23.112;2022-11-21T00:11:13;38.65;;;19.05;;
52104;SDS011;38103;42.776;23.112;2022-11-21T00:13:39;39.30;;;18.33;;
52104;SDS011;38103;42.776;23.112;2022-11-21T00:16:06;32.53;;;15.45;;
52104;SDS011;38103;42.776;23.112;2022-11-21T00:18:33;26.13;;;12.48;;
52104;SDS011;38103;42.776;23.112;2022-11-21T00:21:05;20.83;;;9.23;;
52104;SDS011;38103;42.776;23.112;2022-11-21T00:23:44;22.30;;;9.40;;
52104;SDS011;38103;42.776;23.112;2022-11-21T00:26:10;18.08;;;8.40;;
52104;SDS011;38103;42.776;23.112;2022-11-21T00:28:37;17.55;;;7.80;;
52104;SDS011;38103;42.776;23.112;2022-11-21T00:31:03;14.95;;;7.78;;
52104;SDS011;38103;42.776;23.112;2022-11-21T00:33:29;14.52;;;7.00;;
52104;SDS011;38103;42.776;23.112;2022-11-21T00:35:54;14.43;;;6.63;;
52104;SDS011;38103;42.776;23.112;2022-11-21T00:38:20;15.63;;;7.13;;
52104;SDS011;38103;42.776;23.112;2022-11-21T00:40:45;15.80;;;7.97;;
52104;SDS011;38103;42.776;23.112;2022-11-21T00:43:11;16.58;;;7.22;;
52104;SDS011;38103;42.776;23.112;2022-11-21T00:45:36;14.05;;;7.15;;
52104;SDS011;38103;42.776;23.112;2022-11-21T00:48:02;15.38;;;8.38;;
52104;SDS011;38103;42.776;23.112;2022-11-21T00:50:27;18.15;;;8.02;;
52104;SDS011;38103;42.776;23.112;2022-11-21T00:52:53;16.13;;;7.78;;
52104;SDS011;38103;42.776;23.112;2022-11-21T00:55:20;14.93;;;6.68;;
52104;SDS011;38103;42.776;23.112;2022-11-21T00:57:45;15.13;;;6.15;;
52104;SDS011;38103;42.776;23.112;2022-11-21T01:00:11;12.48;;;5.90;;
52104;SDS011;38103;42.776;23.112;2022-11-21T01:02:37;13.63;;;6.05;;
52104;SDS011;38103;42.776;23.112;2022-11-21T01:05:02;12.90;;;5.55;;
52104;SDS011;38103;42.776;23.112;2022-11-21T01:07:28;15.55;;;6.30;;
52104;SDS011;38103;42.776;23.112;2022-11-21T01:09:53;13.75;;;6.53;;
52104;SDS011;38103;42.776;23.112;2022-11-21T01:12:19;13.02;;;6.82;;
52104;SDS011;38103;42.776;23.112;2022-11-21T01:14:44;15.25;;;7.22;;
52104;SDS011;38103;42.776;23.112;2022-11-21T01:17:09;13.95;;;6.72;;
52104;SDS011;38103;42.776;23.112;2022-11-21T01:19:35;15.57;;;7.90;;
52104;SDS011;38103;42.776;23.112;2022-11-21T01:22:00;14.95;;;7.60;;
52104;SDS011;38103;42.776;23.112;2022-11-21T01:24:25;15.90;;;8.23;;
52104;SDS011;38103;42.776;23.112;2022-11-21T01:26:51;14.73;;;7.55;;
52104;SDS011;38103;42.776;23.112;2022-11-21T01:29:18;17.50;;;7.30;;
52104;SDS011;38103;42.776;23.112;2022-11-21T01:31:44;17.67;;;8.02;;
52104;SDS011;38103;42.776;23.112;2022-11-21T01:34:09;16.75;;;7.65;;
52104;SDS011;38103;42.776;23.112;2022-11-21T01:36:35;15.10;;;7.53;;
52104;SDS011;38103;42.776;23.112;2022-11-21T01:39:02;16.13;;;7.40;;
52104;SDS011;38103;42.776;23.112;2022-11-21T01:41:29;15.52;;;7.78;;
52104;SDS011;38103;42.776;23.112;2022-11-21T01:44:08;18.52;;;8.27;;
52104;SDS011;38103;42.776;23.112;2022-11-21T01:46:44;16.42;;;7.60;;
52104;SDS011;38103;42.776;23.112;2022-11-21T01:49:11;15.27;;;7.53;;
52104;SDS011;38103;42.776;23.112;2022-11-21T01:54:15;15.10;;;7.28;;
52104;SDS011;38103;42.776;23.112;2022-11-21T01:56:50;15.77;;;7.70;;
52104;SDS011;38103;42.776;23.112;2022-11-21T02:02:46;15.90;;;7.72;;
52104;SDS011;38103;42.776;23.112;2022-11-21T02:05:16;13.90;;;7.03;;
52104;SDS011;38103;42.776;23.112;2022-11-21T02:07:46;14.35;;;6.68;;
52104;SDS011;38103;42.776;23.112;2022-11-21T02:10:13;15.95;;;7.00;;
52104;SDS011;38103;42.776;23.112;2022-11-21T02:15:13;15.07;;;6.68;;
52104;SDS011;38103;42.776;23.112;2022-11-21T02:17:40;13.13;;;6.50;;
52104;SDS011;38103;42.776;23.112;2022-11-21T02:20:06;13.48;;;6.10;;
52104;SDS011;38103;42.776;23.112;2022-11-21T02:25:29;15.60;;;6.28;;
52104;SDS011;38103;42.776;23.112;2022-11-21T02:27:57;15.80;;;6.43;;
52104;SDS011;38103;42.776;23.112;2022-11-21T02:30:26;13.43;;;6.68;;
52104;SDS011;38103;42.776;23.112;2022-11-21T02:32:53;15.23;;;7.30;;
52104;SDS011;38103;42.776;23.112;2022-11-21T02:35:19;14.13;;;6.50;;
52104;SDS011;38103;42.776;23.112;2022-11-21T02:37:46;14.95;;;6.93;;
52104;SDS011;38103;42.776;23.112;2022-11-21T02:40:19;15.82;;;7.20;;
52104;SDS011;38103;42.776;23.112;2022-11-21T02:45:40;16.27;;;8.27;;
52104;SDS011;38103;42.776;23.112;2022-11-21T02:48:07;16.77;;;8.23;;
52104;SDS011;38103;42.776;23.112;2022-11-21T02:50:33;19.30;;;9.15;;
52104;SDS011;38103;42.776;23.112;2022-11-21T02:53:01;18.80;;;8.90;;
52104;SDS011;38103;42.776;23.112;2022-11-21T02:55:28;17.20;;;9.60;;
52104;SDS011;38103;42.776;23.112;2022-11-21T02:57:53;19.77;;;10.10;;
52104;SDS011;38103;42.776;23.112;2022-11-21T03:00:19;20.67;;;10.75;;
52104;SDS011;38103;42.776;23.112;2022-11-21T03:02:45;20.98;;;11.13;;
52104;SDS011;38103;42.776;23.112;2022-11-21T03:05:12;22.58;;;10.10;;
52104;SDS011;38103;42.776;23.112;2022-11-21T03:07:38;22.27;;;9.82;;
52104;SDS011;38103;42.776;23.112;2022-11-21T03:10:04;19.98;;;10.30;;
52104;SDS011;38103;42.776;23.112;2022-11-21T03:12:30;20.52;;;9.07;;
52104;SDS011;38103;42.776;23.112;2022-11-21T03:14:55;18.38;;;9.60;;
52104;SDS011;38103;42.776;23.112;2022-11-21T03:17:21;19.33;;;9.73;;
52104;SDS011;38103;42.776;23.112;2022-11-21T03:19:46;19.45;;;9.15;;
52104;SDS011;38103;42.776;23.112;2022-11-21T03:22:12;21.88;;;8.05;;
52104;SDS011;38103;42.776;23.112;2022-11-21T03:24:38;16.65;;;7.93;;
52104;SDS011;38103;42.776;23.112;2022-11-21T03:27:04;15.60;;;7.70;;
52104;SDS011;38103;42.776;23.112;2022-11-21T03:29:30;15.45;;;7.15;;
52104;SDS011;38103;42.776;23.112;2022-11-21T03:31:55;17.83;;;8.20;;
52104;SDS011;38103;42.776;23.112;2022-11-21T03:34:21;14.00;;;5.80;;
52104;SDS011;38103;42.776;23.112;2022-11-21T03:36:46;12.68;;;6.20;;
52104;SDS011;38103;42.776;23.112;2022-11-21T03:39:12;14.68;;;5.82;;
52104;SDS011;38103;42.776;23.112;2022-11-21T03:41:37;14.35;;;5.22;;
52104;SDS011;38103;42.776;23.112;2022-11-21T03:44:06;11.18;;;4.78;;
52104;SDS011;38103;42.776;23.112;2022-11-21T03:46:34;11.65;;;4.30;;
52104;SDS011;38103;42.776;23.112;2022-11-21T03:49:01;11.55;;;4.65;;
52104;SDS011;38103;42.776;23.112;2022-11-21T03:51:27;11.48;;;3.50;;
52104;SDS011;38103;42.776;23.112;2022-11-21T03:53:53;7.45;;;2.42;;
52104;SDS011;38103;42.776;23.112;2022-11-21T03:56:18;6.72;;;2.55;;
52104;SDS011;38103;42.776;23.112;2022-11-21T03:58:43;6.05;;;2.47;;
52104;SDS011;38103;42.776;23.112;2022-11-21T04:01:09;7.35;;;2.60;;
52104;SDS011;38103;42.776;23.112;2022-11-21T04:03:37;4.75;;;2.00;;
52104;SDS011;38103;42.776;23.112;2022-11-21T04:06:02;5.57;;;2.00;;
52104;SDS011;38103;42.776;23.112;2022-11-21T04:08:28;6.22;;;1.90;;
52104;SDS011;38103;42.776;23.112;2022-11-21T04:10:53;3.88;;;1.70;;
52104;SDS011;38103;42.776;23.112;2022-11-21T04:13:19;3.85;;;1.70;;
52104;SDS011;38103;42.776;23.112;2022-11-21T04:15:45;2.78;;;1.50;;
52104;SDS011;38103;42.776;23.112;2022-11-21T04:18:11;3.42;;;1.50;;
52104;SDS011;38103;42.776;23.112;2022-11-21T04:20:37;3.72;;;1.60;;
52104;SDS011;38103;42.776;23.112;2022-11-21T04:23:03;7.78;;;2.20;;
52104;SDS011;38103;42.776;23.112;2022-11-21T04:25:29;2.75;;;1.50;;
52104;SDS011;38103;42.776;23.112;2022-11-21T04:27:55;4.05;;;1.60;;
52104;SDS011;38103;42.776;23.112;2022-11-21T04:30:21;4.15;;;1.85;;
52104;SDS011;38103;42.776;23.112;2022-11-21T04:32:49;2.92;;;1.50;;
52104;SDS011;38103;42.776;23.112;2022-11-21T04:35:15;3.72;;;1.50;;
52104;SDS011;38103;42.776;23.112;2022-11-21T04:37:40;2.70;;;1.60;;
52104;SDS011;38103;42.776;23.112;2022-11-21T04:40:06;1.63;;;1.40;;
52104;SDS011;38103;42.776;23.112;2022-11-21T04:42:32;2.17;;;1.50;;
52104;SDS011;38103;42.776;23.112;2022-11-21T04:44:57;2.35;;;1.50;;
52104;SDS011;38103;42.776;23.112;2022-11-21T04:47:22;3.08;;;1.70;;
52104;SDS011;38103;42.776;23.112;2022-11-21T04:49:48;3.08;;;1.58;;
52104;SDS011;38103;42.776;23.112;2022-11-21T04:52:13;2.70;;;1.60;;
52104;SDS011;38103;42.776;23.112;2022-11-21T04:54:38;5.05;;;1.70;;
52104;SDS011;38103;42.776;23.112;2022-11-21T04:57:04;3.15;;;1.65;;
52104;SDS011;38103;42.776;23.112;2022-11-21T04:59:29;2.03;;;1.50;;
52104;SDS011;38103;42.776;23.112;2022-11-21T05:01:55;3.38;;;1.70;;
52104;SDS011;38103;42.776;23.112;2022-11-21T05:04:20;3.55;;;1.60;;
52104;SDS011;38103;42.776;23.112;2022-11-21T05:06:45;3.00;;;1.60;;
52104;SDS011;38103;42.776;23.112;2022-11-21T05:09:11;3.28;;;1.58;;
52104;SDS011;38103;42.776;23.112;2022-11-21T05:11:36;3.17;;;1.70;;
52104;SDS011;38103;42.776;23.112;2022-11-21T05:16:45;4.32;;;1.70;;
52104;SDS011;38103;42.776;23.112;2022-11-21T05:19:10;3.13;;;1.67;;
52104;SDS011;38103;42.776;23.112;2022-11-21T05:21:36;2.63;;;1.70;;
52104;SDS011;38103;42.776;23.112;2022-11-21T05:24:01;4.13;;;1.73;;
52104;SDS011;38103;42.776;23.112;2022-11-21T05:26:26;2.40;;;1.65;;
52104;SDS011;38103;42.776;23.112;2022-11-21T05:28:52;2.05;;;1.50;;
52104;SDS011;38103;42.776;23.112;2022-11-21T05:31:17;3.05;;;1.63;;
52104;SDS011;38103;42.776;23.112;2022-11-21T05:33:43;2.35;;;1.55;;
52104;SDS011;38103;42.776;23.112;2022-11-21T05:36:08;1.70;;;1.50;;
52104;SDS011;38103;42.776;23.112;2022-11-21T05:38:33;3.42;;;1.60;;
52104;SDS011;38103;42.776;23.112;2022-11-21T05:40:59;3.28;;;1.75;;
52104;SDS011;38103;42.776;23.112;2022-11-21T05:43:24;2.13;;;1.60;;
52104;SDS011;38103;42.776;23.112;2022-11-21T05:46:08;2.53;;;1.65;;
52104;SDS011;38103;42.776;23.112;2022-11-21T05:48:33;2.97;;;1.70;;
52104;SDS011;38103;42.776;23.112;2022-11-21T05:51:00;3.97;;;1.70;;
52104;SDS011;38103;42.776;23.112;2022-11-21T05:53:27;3.63;;;1.80;;
52104;SDS011;38103;42.776;23.112;2022-11-21T05:55:53;2.75;;;1.65;;
52104;SDS011;38103;42.776;23.112;2022-11-21T05:58:18;3.15;;;1.80;;
52104;SDS011;38103;42.776;23.112;2022-11-21T06:00:43;4.18;;;1.80;;
52104;SDS011;38103;42.776;23.112;2022-11-21T06:03:09;5.03;;;1.70;;
52104;SDS011;38103;42.776;23.112;2022-11-21T06:05:58;3.63;;;1.70;;
52104;SDS011;38103;42.776;23.112;2022-11-21T06:08:28;3.13;;;1.80;;
52104;SDS011;38103;42.776;23.112;2022-11-21T06:10:55;3.28;;;1.80;;
52104;SDS011;38103;42.776;23.112;2022-11-21T06:13:21;3.17;;;1.70;;
52104;SDS011;38103;42.776;23.112;2022-11-21T06:15:47;4.05;;;1.80;;
52104;SDS011;38103;42.776;23.112;2022-11-21T06:18:15;2.63;;;1.70;;
52104;SDS011;38103;42.776;23.112;2022-11-21T06:20:40;5.35;;;1.90;;
52104;SDS011;38103;42.776;23.112;2022-11-21T06:23:06;3.03;;;1.80;;
52104;SDS011;38103;42.776;23.112;2022-11-21T06:25:31;5.30;;;1.80;;
52104;SDS011;38103;42.776;23.112;2022-11-21T06:27:58;2.50;;;1.65;;
52104;SDS011;38103;42.776;23.112;2022-11-21T06:30:24;3.88;;;1.67;;
52104;SDS011;38103;42.776;23.112;2022-11-21T06:32:49;3.55;;;1.80;;
52104;SDS011;38103;42.776;23.112;2022-11-21T06:35:15;2.28;;;1.67;;
52104;SDS011;38103;42.776;23.112;2022-11-21T06:37:40;3.33;;;1.80;;
52104;SDS011;38103;42.776;23.112;2022-11-21T06:40:06;3.85;;;1.90;;
52104;SDS011;38103;42.776;23.112;2022-11-21T06:42:31;6.35;;;1.88;;
52104;SDS011;38103;42.776;23.112;2022-11-21T06:44:57;3.60;;;1.80;;
52104;SDS011;38103;42.776;23.112;2022-11-21T06:47:22;4.70;;;2.08;;
52104;SDS011;38103;42.776;23.112;2022-11-21T06:49:48;3.92;;;1.90;;
52104;SDS011;38103;42.776;23.112;2022-11-21T06:52:13;4.70;;;1.85;;
52104;SDS011;38103;42.776;23.112;2022-11-21T06:54:39;3.92;;;1.80;;
52104;SDS011;38103;42.776;23.112;2022-11-21T06:57:04;3.83;;;1.90;;
52104;SDS011;38103;42.776;23.112;2022-11-21T06:59:29;3.60;;;1.90;;
52104;SDS011;38103;42.776;23.112;2022-11-21T07:01:55;6.95;;;2.15;;
52104;SDS011;38103;42.776;23.112;2022-11-21T07:04:20;6.90;;;1.90;;
52104;SDS011;38103;42.776;23.112;2022-11-21T07:06:45;4.82;;;1.90;;
52104;SDS011;38103;42.776;23.112;2022-11-21T07:09:11;3.28;;;1.80;;
52104;SDS011;38103;42.776;23.112;2022-11-21T07:11:36;4.30;;;1.90;;
52104;SDS011;38103;42.776;23.112;2022-11-21T07:14:02;4.15;;;2.00;;
52104;SDS011;38103;42.776;23.112;2022-11-21T07:16:28;4.50;;;1.95;;
52104;SDS011;38103;42.776;23.112;2022-11-21T07:18:55;3.40;;;1.70;;
52104;SDS011;38103;42.776;23.112;2022-11-21T07:21:21;4.10;;;1.90;;
52104;SDS011;38103;42.776;23.112;2022-11-21T07:23:47;3.55;;;1.80;;
52104;SDS011;38103;42.776;23.112;2022-11-21T07:26:12;3.72;;;1.90;;
52104;SDS011;38103;42.776;23.112;2022-11-21T07:28:38;4.65;;;2.00;;
52104;SDS011;38103;42.776;23.112;2022-11-21T07:31:03;5.20;;;2.00;;
52104;SDS011;38103;42.776;23.112;2022-11-21T07:33:29;4.10;;;2.00;;
52104;SDS011;38103;42.776;23.112;2022-11-21T07:35:55;5.05;;;2.15;;
52104;SDS011;38103;42.776;23.112;2022-11-21T07:38:24;4.50;;;2.10;;
52104;SDS011;38103;42.776;23.112;2022-11-21T07:40:50;5.72;;;2.10;;
52104;SDS011;38103;42.776;23.112;2022-11-21T07:43:15;5.03;;;1.92;;
52104;SDS011;38103;42.776;23.112;2022-11-21T07:45:41;4.47;;;2.10;;
52104;SDS011;38103;42.776;23.112;2022-11-21T07:48:07;4.20;;;1.90;;
52104;SDS011;38103;42.776;23.112;2022-11-21T07:50:32;4.07;;;1.92;;
52104;SDS011;38103;42.776;23.112;2022-11-21T07:52:58;4.55;;;1.90;;
52104;SDS011;38103;42.776;23.112;2022-11-21T07:55:25;5.13;;;2.10;;
52104;SDS011;38103;42.776;23.112;2022-11-21T07:58:06;6.10;;;2.40;;
52104;SDS011;38103;42.776;23.112;2022-11-21T08:00:34;5.72;;;2.10;;
52104;SDS011;38103;42.776;23.112;2022-11-21T08:03:00;4.28;;;2.00;;
52104;SDS011;38103;42.776;23.112;2022-11-21T08:05:27;5.70;;;2.22;;
52104;SDS011;38103;42.776;23.112;2022-11-21T08:07:52;6.40;;;2.45;;
52104;SDS011;38103;42.776;23.112;2022-11-21T08:10:18;5.53;;;2.20;;
52104;SDS011;38103;42.776;23.112;2022-11-21T08:12:44;5.90;;;2.10;;
52104;SDS011;38103;42.776;23.112;2022-11-21T08:15:10;5.57;;;2.17;;
52104;SDS011;38103;42.776;23.112;2022-11-21T08:17:35;6.45;;;1.90;;
52104;SDS011;38103;42.776;23.112;2022-11-21T08:20:02;3.17;;;1.80;;
52104;SDS011;38103;42.776;23.112;2022-11-21T08:22:28;4.43;;;2.10;;
52104;SDS011;38103;42.776;23.112;2022-11-21T08:24:53;5.40;;;2.05;;
52104;SDS011;38103;42.776;23.112;2022-11-21T08:27:19;4.88;;;1.90;;
52104;SDS011;38103;42.776;23.112;2022-11-21T08:29:46;5.88;;;2.17;;
52104;SDS011;38103;42.776;23.112;2022-11-21T08:32:12;5.13;;;2.08;;
52104;SDS011;38103;42.776;23.112;2022-11-21T08:34:37;6.07;;;2.10;;
52104;SDS011;38103;42.776;23.112;2022-11-21T08:37:03;4.75;;;1.98;;
52104;SDS011;38103;42.776;23.112;2022-11-21T08:39:28;3.88;;;1.90;;
52104;SDS011;38103;42.776;23.112;2022-11-21T08:41:55;4.60;;;2.10;;
52104;SDS011;38103;42.776;23.112;2022-11-21T08:44:30;4.45;;;2.05;;
52104;SDS011;38103;42.776;23.112;2022-11-21T08:46:57;4.30;;;2.00;;
52104;SDS011;38103;42.776;23.112;2022-11-21T08:49:23;4.40;;;2.10;;
52104;SDS011;38103;42.776;23.112;2022-11-21T08:51:48;5.63;;;2.20;;
52104;SDS011;38103;42.776;23.112;2022-11-21T08:54:17;5.60;;;2.17;;
52104;SDS011;38103;42.776;23.112;2022-11-21T08:56:44;6.35;;;2.38;;
52104;SDS011;38103;42.776;23.112;2022-11-21T08:59:10;5.57;;;2.15;;
52104;SDS011;38103;42.776;23.112;2022-11-21T09:01:35;7.38;;;2.33;;
52104;SDS011;38103;42.776;23.112;2022-11-21T09:04:01;5.05;;;2.10;;
52104;SDS011;38103;42.776;23.112;2022-11-21T09:06:27;6.68;;;2.30;;
52104;SDS011;38103;42.776;23.112;2022-11-21T09:08:52;4.22;;;2.00;;
52104;SDS011;38103;42.776;23.112;2022-11-21T09:11:17;5.03;;;2.10;;
52104;SDS011;38103;42.776;23.112;2022-11-21T09:13:43;4.50;;;2.10;;
52104;SDS011;38103;42.776;23.112;2022-11-21T09:16:28;3.95;;;1.90;;
52104;SDS011;38103;42.776;23.112;2022-11-21T09:21:37;5.20;;;2.15;;
52104;SDS011;38103;42.776;23.112;2022-11-21T09:24:03;5.75;;;2.20;;
52104;SDS011;38103;42.776;23.112;2022-11-21T09:26:28;6.53;;;2.40;;
52104;SDS011;38103;42.776;23.112;2022-11-21T09:28:54;4.95;;;2.30;;
52104;SDS011;38103;42.776;23.112;2022-11-21T09:31:21;6.75;;;2.35;;
52104;SDS011;38103;42.776;23.112;2022-11-21T09:33:46;7.50;;;2.50;;
52104;SDS011;38103;42.776;23.112;2022-11-21T09:36:12;6.70;;;2.60;;
52104;SDS011;38103;42.776;23.112;2022-11-21T09:38:37;6.95;;;2.50;;
52104;SDS011;38103;42.776;23.112;2022-11-21T09:41:10;5.72;;;2.45;;
52104;SDS011;38103;42.776;23.112;2022-11-21T09:47:40;6.30;;;2.50;;
52104;SDS011;38103;42.776;23.112;2022-11-21T09:50:02;7.35;;;2.65;;
52104;SDS011;38103;42.776;23.112;2022-11-21T09:55:33;7.85;;;2.97;;
52104;SDS011;38103;42.776;23.112;2022-11-21T10:00:56;6.20;;;2.30;;
52104;SDS011;38103;42.776;23.112;2022-11-21T10:03:23;7.15;;;2.58;;
52104;SDS011;38103;42.776;23.112;2022-11-21T10:05:53;6.28;;;2.50;;
52104;SDS011;38103;42.776;23.112;2022-11-21T10:08:38;6.50;;;2.40;;
52104;SDS011;38103;42.776;23.112;2022-11-21T10:20:11;7.13;;;2.75;;
52104;SDS011;38103;42.776;23.112;2022-11-21T10:25:24;7.38;;;2.88;;
52104;SDS011;38103;42.776;23.112;2022-11-21T10:27:53;6.60;;;2.53;;
52104;SDS011;38103;42.776;23.112;2022-11-21T10:30:24;7.22;;;2.60;;
52104;SDS011;38103;42.776;23.112;2022-11-21T10:32:54;6.38;;;2.60;;
52104;SDS011;38103;42.776;23.112;2022-11-21T10:35:24;6.90;;;2.50;;
52104;SDS011;38103;42.776;23.112;2022-11-21T10:38:00;5.68;;;2.35;;
52104;SDS011;38103;42.776;23.112;2022-11-21T10:46:11;6.70;;;2.40;;
52104;SDS011;38103;42.776;23.112;2022-11-21T10:48:37;5.88;;;2.30;;
52104;SDS011;38103;42.776;23.112;2022-11-21T10:53:29;6.03;;;2.28;;
52104;SDS011;38103;42.776;23.112;2022-11-21T10:56:18;4.43;;;2.00;;
52104;SDS011;38103;42.776;23.112;2022-11-21T10:58:55;5.32;;;2.20;;
52104;SDS011;38103;42.776;23.112;2022-11-21T11:06:31;4.03;;;1.90;;
52104;SDS011;38103;42.776;23.112;2022-11-21T11:08:57;6.47;;;2.40;;
52104;SDS011;38103;42.776;23.112;2022-11-21T11:11:22;5.90;;;2.17;;
52104;SDS011;38103;42.776;23.112;2022-11-21T11:13:52;6.57;;;2.25;;
52104;SDS011;38103;42.776;23.112;2022-11-21T11:16:19;4.90;;;2.20;;
52104;SDS011;38103;42.776;23.112;2022-11-21T11:18:46;5.32;;;2.20;;
52104;SDS011;38103;42.776;23.112;2022-11-21T11:21:29;5.87;;;2.27;;
52104;SDS011;38103;42.776;23.112;2022-11-21T11:26:34;5.85;;;2.15;;
52104;SDS011;38103;42.776;23.112;2022-11-21T11:29:23;8.40;;;2.63;;
52104;SDS011;38103;42.776;23.112;2022-11-21T11:31:58;5.95;;;2.10;;
52104;SDS011;38103;42.776;23.112;2022-11-21T11:45:02;7.30;;;2.97;;
52104;SDS011;38103;42.776;23.112;2022-11-21T11:47:55;7.53;;;2.58;;
52104;SDS011;38103;42.776;23.112;2022-11-21T11:53:10;7.65;;;2.50;;
52104;SDS011;38103;42.776;23.112;2022-11-21T11:55:51;5.63;;;2.30;;
52104;SDS011;38103;42.776;23.112;2022-11-21T11:58:26;6.72;;;2.40;;
52104;SDS011;38103;42.776;23.112;2022-11-21T12:03:23;7.30;;;2.30;;
52104;SDS011;38103;42.776;23.112;2022-11-21T12:05:58;5.45;;;2.08;;
52104;SDS011;38103;42.776;23.112;2022-11-21T12:08:40;4.25;;;1.90;;
52104;SDS011;38103;42.776;23.112;2022-11-21T12:11:12;5.00;;;2.20;;
52104;SDS011;38103;42.776;23.112;2022-11-21T12:13:58;5.53;;;1.98;;
52104;SDS011;38103;42.776;23.112;2022-11-21T12:16:31;5.15;;;2.17;;
52104;SDS011;38103;42.776;23.112;2022-11-21T12:19:02;3.70;;;1.80;;
52104;SDS011;38103;42.776;23.112;2022-11-21T12:21:34;5.22;;;2.03;;
52104;SDS011;38103;42.776;23.112;2022-11-21T12:24:01;5.65;;;2.20;;
52104;SDS011;38103;42.776;23.112;2022-11-21T12:29:49;5.22;;;2.20;;
52104;SDS011;38103;42.776;23.112;2022-11-21T12:32:41;7.57;;;2.65;;
52104;SDS011;38103;42.776;23.112;2022-11-21T12:37:52;9.25;;;3.10;;
52104;SDS011;38103;42.776;23.112;2022-11-21T12:45:54;10.00;;;3.50;;
52104;SDS011;38103;42.776;23.112;2022-11-21T12:48:31;9.23;;;3.45;;
52104;SDS011;38103;42.776;23.112;2022-11-21T12:54:54;8.73;;;3.72;;
52104;SDS011;38103;42.776;23.112;2022-11-21T13:00:41;9.68;;;4.03;;
52104;SDS011;38103;42.776;23.112;2022-11-21T13:03:25;9.38;;;4.18;;
52104;SDS011;38103;42.776;23.112;2022-11-21T13:06:23;10.35;;;4.55;;
52104;SDS011;38103;42.776;23.112;2022-11-21T13:08:51;8.80;;;3.83;;
52104;SDS011;38103;42.776;23.112;2022-11-21T13:11:26;9.80;;;3.90;;
52104;SDS011;38103;42.776;23.112;2022-11-21T13:19:55;12.48;;;4.15;;
52104;SDS011;38103;42.776;23.112;2022-11-21T13:27:35;10.25;;;4.63;;
52104;SDS011;38103;42.776;23.112;2022-11-21T13:45:47;11.85;;;5.28;;
52104;SDS011;38103;42.776;23.112;2022-11-21T13:59:09;11.65;;;5.90;;
52104;SDS011;38103;42.776;23.112;2022-11-21T14:07:49;10.90;;;5.10;;
52104;SDS011;38103;42.776;23.112;2022-11-21T14:12:49;12.00;;;5.60;;
52104;SDS011;38103;42.776;23.112;2022-11-21T14:15:25;12.07;;;5.57;;
52104;SDS011;38103;42.776;23.112;2022-11-21T14:18:18;12.13;;;5.55;;
52104;SDS011;38103;42.776;23.112;2022-11-21T14:20:58;11.52;;;5.43;;
52104;SDS011;38103;42.776;23.112;2022-11-21T14:23:25;11.38;;;5.43;;
52104;SDS011;38103;42.776;23.112;2022-11-21T14:25:55;10.57;;;4.88;;
52104;SDS011;38103;42.776;23.112;2022-11-21T14:28:28;11.60;;;5.40;;
52104;SDS011;38103;42.776;23.112;2022-11-21T14:31:02;10.77;;;5.05;;
52104;SDS011;38103;42.776;23.112;2022-11-21T14:33:39;11.40;;;5.50;;
52104;SDS011;38103;42.776;23.112;2022-11-21T14:41:31;9.80;;;4.53;;
52104;SDS011;38103;42.776;23.112;2022-11-21T14:46:22;11.43;;;5.20;;
52104;SDS011;38103;42.776;23.112;2022-11-21T14:48:52;10.57;;;5.13;;
52104;SDS011;38103;42.776;23.112;2022-11-21T14:51:19;10.43;;;5.00;;
52104;SDS011;38103;42.776;23.112;2022-11-21T14:53:47;11.27;;;5.20;;
52104;SDS011;38103;42.776;23.112;2022-11-21T14:56:21;10.50;;;4.53;;
52104;SDS011;38103;42.776;23.112;2022-11-21T14:58:49;9.98;;;4.72;;
52104;SDS011;38103;42.776;23.112;2022-11-21T15:01:22;10.55;;;4.95;;
52104;SDS011;38103;42.776;23.112;2022-11-21T15:03:59;11.23;;;5.30;;
52104;SDS011;38103;42.776;23.112;2022-11-21T15:06:39;11.38;;;5.45;;
52104;SDS011;38103;42.776;23.112;2022-11-21T15:09:09;11.00;;;5.30;;
52104;SDS011;38103;42.776;23.112;2022-11-21T15:11:45;11.48;;;5.45;;
52104;SDS011;38103;42.776;23.112;2022-11-21T15:17:02;11.25;;;5.60;;
52104;SDS011;38103;42.776;23.112;2022-11-21T15:19:32;11.10;;;5.20;;
52104;SDS011;38103;42.776;23.112;2022-11-21T15:21:58;12.23;;;5.57;;
52104;SDS011;38103;42.776;23.112;2022-11-21T15:24:27;11.38;;;5.30;;
52104;SDS011;38103;42.776;23.112;2022-11-21T15:26:54;11.95;;;6.18;;
52104;SDS011;38103;42.776;23.112;2022-11-21T15:29:20;11.93;;;5.80;;
52104;SDS011;38103;42.776;23.112;2022-11-21T15:32:07;12.05;;;6.18;;
52104;SDS011;38103;42.776;23.112;2022-11-21T15:34:32;12.48;;;5.85;;
52104;SDS011;38103;42.776;23.112;2022-11-21T15:37:04;11.60;;;5.90;;
52104;SDS011;38103;42.776;23.112;2022-11-21T15:39:41;12.32;;;5.93;;
52104;SDS011;38103;42.776;23.112;2022-11-21T15:47:35;11.73;;;6.23;;
52104;SDS011;38103;42.776;23.112;2022-11-21T15:50:01;13.68;;;6.10;;
52104;SDS011;38103;42.776;23.112;2022-11-21T15:52:27;11.20;;;5.85;;
52104;SDS011;38103;42.776;23.112;2022-11-21T15:54:53;12.77;;;5.80;;
52104;SDS011;38103;42.776;23.112;2022-11-21T15:57:18;11.50;;;5.45;;
52104;SDS011;38103;42.776;23.112;2022-11-21T15:59:45;11.82;;;6.10;;
52104;SDS011;38103;42.776;23.112;2022-11-21T16:02:11;11.27;;;5.63;;
52104;SDS011;38103;42.776;23.112;2022-11-21T16:04:38;10.82;;;5.55;;
52104;SDS011;38103;42.776;23.112;2022-11-21T16:07:03;11.10;;;5.85;;
52104;SDS011;38103;42.776;23.112;2022-11-21T16:09:29;12.13;;;6.00;;
52104;SDS011;38103;42.776;23.112;2022-11-21T16:11:54;11.90;;;6.20;;
52104;SDS011;38103;42.776;23.112;2022-11-21T16:14:19;12.45;;;6.03;;
52104;SDS011;38103;42.776;23.112;2022-11-21T16:16:45;11.55;;;5.68;;
52104;SDS011;38103;42.776;23.112;2022-11-21T16:19:11;11.20;;;5.47;;
52104;SDS011;38103;42.776;23.112;2022-11-21T16:21:37;11.32;;;5.60;;
52104;SDS011;38103;42.776;23.112;2022-11-21T16:24:04;10.80;;;5.38;;
52104;SDS011;38103;42.776;23.112;2022-11-21T16:26:29;11.55;;;5.90;;
52104;SDS011;38103;42.776;23.112;2022-11-21T16:28:57;11.90;;;6.25;;
52104;SDS011;38103;42.776;23.112;2022-11-21T16:31:25;10.93;;;5.20;;
52104;SDS011;38103;42.776;23.112;2022-11-21T16:33:51;11.15;;;5.47;;
52104;SDS011;38103;42.776;23.112;2022-11-21T16:36:18;11.50;;;5.55;;
52104;SDS011;38103;42.776;23.112;2022-11-21T16:38:49;10.15;;;5.20;;
52104;SDS011;38103;42.776;23.112;2022-11-21T16:41:18;11.45;;;5.60;;
52104;SDS011;38103;42.776;23.112;2022-11-21T16:43:46;10.85;;;5.53;;
52104;SDS011;38103;42.776;23.112;2022-11-21T16:46:13;11.80;;;5.80;;
52104;SDS011;38103;42.776;23.112;2022-11-21T16:48:39;11.90;;;6.10;;
52104;SDS011;38103;42.776;23.112;2022-11-21T16:51:08;11.50;;;5.72;;
52104;SDS011;38103;42.776;23.112;2022-11-21T16:53:44;11.25;;;5.80;;
52104;SDS011;38103;42.776;23.112;2022-11-21T16:56:11;11.20;;;5.75;;
52104;SDS011;38103;42.776;23.112;2022-11-21T16:58:38;12.07;;;6.15;;
52104;SDS011;38103;42.776;23.112;2022-11-21T17:03:51;13.45;;;6.82;;
52104;SDS011;38103;42.776;23.112;2022-11-21T17:06:17;13.70;;;6.78;;
52104;SDS011;38103;42.776;23.112;2022-11-21T17:08:45;13.48;;;6.82;;
52104;SDS011;38103;42.776;23.112;2022-11-21T17:13:41;13.43;;;6.90;;